createdAt,value
2019-03-19T00:00:37.065Z,9.20
2019-03-19T00:03:03.469Z,10.08
2019-03-19T00:05:29.659Z,9.00
2019-03-19T00:07:55.816Z,7.22
2019-03-19T00:10:21.983Z,9.43
2019-03-19T00:12:48.160Z,6.80
2019-03-19T00:15:14.317Z,8.80
2019-03-19T00:17:40.516Z,7.65
2019-03-19T00:20:11.870Z,11.88
2019-03-19T00:22:38.099Z,9.23
2019-03-19T00:25:05.176Z,9.73
2019-03-19T00:27:32.372Z,6.55
2019-03-19T00:29:58.534Z,7.47
2019-03-19T00:32:24.716Z,6.37
2019-03-19T00:34:50.898Z,6.70
2019-03-19T00:37:17.070Z,7.55
2019-03-19T00:39:43.240Z,6.75
2019-03-19T00:42:09.420Z,7.42
2019-03-19T00:44:35.596Z,6.12
2019-03-19T00:47:01.771Z,5.92
2019-03-19T00:49:27.975Z,6.80
2019-03-19T00:51:54.135Z,8.23
2019-03-19T00:54:20.327Z,6.25
2019-03-19T00:56:46.465Z,8.60
2019-03-19T00:59:12.673Z,6.62
2019-03-19T01:01:39.001Z,8.45
2019-03-19T01:04:05.268Z,6.58
2019-03-19T01:06:32.416Z,7.75
2019-03-19T01:08:58.636Z,8.15
2019-03-19T01:11:24.780Z,8.28
2019-03-19T01:13:50.969Z,9.80
2019-03-19T01:16:17.167Z,10.43
2019-03-19T01:18:43.438Z,9.48
2019-03-19T01:21:09.607Z,9.58
2019-03-19T01:23:35.790Z,8.30
2019-03-19T01:26:02.005Z,9.43
2019-03-19T01:28:28.172Z,10.43
2019-03-19T01:30:54.360Z,9.80
2019-03-19T01:33:20.605Z,9.18
2019-03-19T01:35:47.780Z,7.58
2019-03-19T01:38:14.265Z,6.92
2019-03-19T01:40:40.453Z,6.85
2019-03-19T01:43:06.625Z,7.60
2019-03-19T01:45:32.816Z,9.45
2019-03-19T01:47:58.981Z,9.40
2019-03-19T01:50:25.165Z,5.03
2019-03-19T01:52:51.371Z,7.08
2019-03-19T01:55:17.537Z,7.22
2019-03-19T01:57:43.714Z,8.40
2019-03-19T02:00:11.796Z,8.58
2019-03-19T02:02:37.990Z,7.00
2019-03-19T02:05:04.766Z,8.48
2019-03-19T02:07:30.952Z,9.13
2019-03-19T02:09:58.120Z,6.83
2019-03-19T02:12:24.337Z,9.18
2019-03-19T02:14:50.609Z,6.65
2019-03-19T02:17:16.767Z,7.97
2019-03-19T02:19:42.946Z,7.72
2019-03-19T02:22:09.137Z,9.20
2019-03-19T02:24:35.342Z,8.93
2019-03-19T02:27:01.526Z,8.50
2019-03-19T02:29:27.708Z,7.33
2019-03-19T02:31:53.883Z,8.13
2019-03-19T02:34:20.070Z,7.90
2019-03-19T02:36:46.281Z,7.90
2019-03-19T02:39:12.606Z,13.13
2019-03-19T02:41:38.850Z,11.28
2019-03-19T02:44:05.154Z,11.35
2019-03-19T02:46:31.609Z,11.90
2019-03-19T02:48:57.754Z,11.03
2019-03-19T02:51:23.953Z,11.57
2019-03-19T02:53:50.141Z,8.35
2019-03-19T02:56:31.420Z,9.83
2019-03-19T02:58:44.431Z,9.75
2019-03-19T03:01:10.614Z,10.10
2019-03-19T03:03:36.781Z,6.83
2019-03-19T03:06:03.077Z,7.30
2019-03-19T03:08:29.290Z,7.87
2019-03-19T03:10:55.472Z,8.45
2019-03-19T03:13:21.682Z,8.98
2019-03-19T03:15:50.025Z,8.88
2019-03-19T03:18:17.782Z,8.85
2019-03-19T03:20:44.070Z,9.53
2019-03-19T03:23:10.338Z,11.18
2019-03-19T03:25:36.583Z,7.97
2019-03-19T03:28:02.909Z,8.38
2019-03-19T03:30:29.090Z,8.53
2019-03-19T03:32:55.245Z,8.35
2019-03-19T03:35:21.490Z,8.65
2019-03-19T03:37:47.934Z,7.90
2019-03-19T03:40:15.303Z,8.73
2019-03-19T03:42:43.135Z,8.78
2019-03-19T03:45:14.045Z,9.25
2019-03-19T03:47:40.442Z,8.58
2019-03-19T03:50:09.301Z,8.00
2019-03-19T03:52:36.475Z,6.87
2019-03-19T03:55:05.415Z,8.03
2019-03-19T03:57:31.587Z,8.43
2019-03-19T03:59:58.616Z,8.98
2019-03-19T04:02:24.807Z,9.45
2019-03-19T04:04:50.999Z,7.97
2019-03-19T04:07:17.258Z,7.12
2019-03-19T04:09:43.431Z,11.97
2019-03-19T04:12:09.621Z,9.20
2019-03-19T04:14:35.873Z,9.03
2019-03-19T04:17:02.054Z,9.93
2019-03-19T04:19:28.257Z,10.15
2019-03-19T04:21:54.425Z,10.53
2019-03-19T04:24:20.577Z,9.65
2019-03-19T04:26:46.798Z,10.30
2019-03-19T04:29:13.077Z,10.28
2019-03-19T04:31:39.262Z,9.78
2019-03-19T04:34:05.441Z,11.63
2019-03-19T04:36:31.641Z,10.88
2019-03-19T04:38:57.830Z,11.48
2019-03-19T04:41:24.008Z,8.28
2019-03-19T04:43:50.233Z,8.38
2019-03-19T04:46:16.394Z,10.82
2019-03-19T04:48:42.614Z,10.95
2019-03-19T04:51:08.786Z,11.75
2019-03-19T04:53:34.997Z,10.93
2019-03-19T04:56:01.156Z,11.95
2019-03-19T04:58:27.390Z,12.90
2019-03-19T05:00:53.656Z,12.28
2019-03-19T05:03:20.938Z,14.03
2019-03-19T05:05:47.381Z,15.00
2019-03-19T05:08:13.565Z,14.75
2019-03-19T05:10:39.742Z,17.90
2019-03-19T05:13:05.921Z,18.62
2019-03-19T05:15:32.131Z,15.80
2019-03-19T05:17:58.296Z,16.02
2019-03-19T05:20:24.488Z,16.60
2019-03-19T05:22:50.675Z,17.90
2019-03-19T05:25:16.840Z,14.40
2019-03-19T05:27:43.061Z,12.43
2019-03-19T05:30:14.746Z,12.82
2019-03-19T05:32:40.897Z,12.45
2019-03-19T05:35:08.097Z,14.93
2019-03-19T05:37:34.280Z,14.68
2019-03-19T05:40:00.553Z,17.32
2019-03-19T05:42:26.726Z,13.88
2019-03-19T05:44:52.899Z,14.05
2019-03-19T05:47:19.067Z,16.02
2019-03-19T05:49:45.291Z,16.12
2019-03-19T05:52:11.520Z,20.08
2019-03-19T05:54:37.750Z,25.45
2019-03-19T05:57:03.944Z,25.00
2019-03-19T05:59:30.102Z,23.35
2019-03-19T06:01:56.323Z,18.65
2019-03-19T06:04:22.851Z,18.77
2019-03-19T06:06:50.134Z,16.82
2019-03-19T06:09:16.390Z,18.77
2019-03-19T06:11:42.597Z,17.20
2019-03-19T06:14:09.928Z,18.70
2019-03-19T06:16:36.121Z,16.35
2019-03-19T06:19:02.501Z,18.60
2019-03-19T06:21:28.813Z,14.20
2019-03-19T06:23:55.008Z,15.48
2019-03-19T06:26:21.275Z,17.23
2019-03-19T06:28:47.542Z,13.48
2019-03-19T06:31:14.020Z,18.30
2019-03-19T06:33:40.184Z,14.68
2019-03-19T06:36:06.456Z,15.50
2019-03-19T06:38:32.652Z,17.77
2019-03-19T06:40:58.821Z,14.85
2019-03-19T06:43:25.016Z,16.35
2019-03-19T06:45:51.178Z,12.55
2019-03-19T06:48:17.371Z,14.93
2019-03-19T06:50:45.409Z,14.98
2019-03-19T06:53:11.693Z,12.90
2019-03-19T06:55:38.173Z,12.40
2019-03-19T06:58:10.827Z,12.53
2019-03-19T07:00:32.979Z,15.32
2019-03-19T07:02:59.155Z,13.85
2019-03-19T07:05:25.343Z,12.93
2019-03-19T07:07:51.539Z,14.03
2019-03-19T07:10:18.801Z,12.95
2019-03-19T07:12:45.075Z,13.83
2019-03-19T07:15:22.700Z,12.90
2019-03-19T07:17:49.063Z,11.43
2019-03-19T07:20:19.953Z,11.00
2019-03-19T07:22:46.133Z,12.58
2019-03-19T07:25:12.503Z,17.32
2019-03-19T07:27:38.688Z,13.53
2019-03-19T07:30:08.696Z,17.90
2019-03-19T07:32:34.897Z,12.33
2019-03-19T07:35:01.082Z,12.78
2019-03-19T07:37:27.278Z,13.00
2019-03-19T07:39:53.492Z,13.98
2019-03-19T07:42:19.645Z,15.28
2019-03-19T07:44:45.821Z,12.15
2019-03-19T07:47:12.020Z,12.13
2019-03-19T07:49:38.363Z,15.15
2019-03-19T07:52:04.516Z,15.95
2019-03-19T07:54:30.729Z,14.50
2019-03-19T07:56:56.892Z,15.83
2019-03-19T07:59:23.071Z,15.10
2019-03-19T08:01:49.257Z,15.55
2019-03-19T08:04:15.412Z,14.78
2019-03-19T08:06:43.646Z,14.68
2019-03-19T08:09:09.823Z,16.50
2019-03-19T08:11:35.988Z,13.83
2019-03-19T08:14:02.193Z,13.90
2019-03-19T08:16:28.417Z,17.67
2019-03-19T08:18:54.861Z,12.60
2019-03-19T08:21:22.611Z,15.35
2019-03-19T08:23:48.912Z,14.85
2019-03-19T08:26:15.081Z,16.60
2019-03-19T08:28:41.288Z,14.63
2019-03-19T08:31:07.466Z,18.30
2019-03-19T08:33:33.650Z,12.63
2019-03-19T08:36:09.043Z,12.88
2019-03-19T08:38:28.120Z,12.90
2019-03-19T08:40:54.281Z,15.35
2019-03-19T08:43:34.004Z,10.93
2019-03-19T08:46:00.170Z,13.10
2019-03-19T08:48:26.349Z,10.72
2019-03-19T08:50:52.559Z,19.15
2019-03-19T08:53:18.724Z,12.82
2019-03-19T08:55:45.139Z,16.05
2019-03-19T08:58:11.508Z,13.58
2019-03-19T09:00:37.662Z,10.75
2019-03-19T09:03:04.631Z,11.20
2019-03-19T09:05:30.821Z,11.48
2019-03-19T09:07:57.000Z,15.08
2019-03-19T09:10:23.157Z,12.70
2019-03-19T09:12:49.378Z,12.20
2019-03-19T09:15:24.870Z,12.70
2019-03-19T09:17:51.067Z,9.93
2019-03-19T09:20:17.687Z,11.73
2019-03-19T09:22:43.854Z,11.12
2019-03-19T09:25:10.566Z,9.95
2019-03-19T09:27:36.786Z,12.33
2019-03-19T09:30:14.919Z,10.40
2019-03-19T09:32:41.210Z,11.28
2019-03-19T09:35:07.989Z,12.28
2019-03-19T09:37:34.154Z,12.37
2019-03-19T09:40:00.445Z,10.25
2019-03-19T09:42:26.761Z,10.10
2019-03-19T09:44:58.332Z,11.43
2019-03-19T09:47:21.116Z,10.85
2019-03-19T09:49:47.324Z,12.78
2019-03-19T09:52:13.503Z,12.15
2019-03-19T09:54:39.663Z,13.00
2019-03-19T09:57:05.839Z,14.90
2019-03-19T09:59:32.001Z,15.15
2019-03-19T10:01:58.176Z,13.15
2019-03-19T10:04:24.356Z,12.00
2019-03-19T10:06:50.536Z,14.30
2019-03-19T10:09:16.733Z,16.17
2019-03-19T10:11:42.940Z,14.35
2019-03-19T10:14:09.110Z,16.10
2019-03-19T10:16:35.294Z,15.45
2019-03-19T10:19:01.464Z,12.45
2019-03-19T10:21:27.649Z,11.73
2019-03-19T10:23:54.060Z,12.95
2019-03-19T10:26:20.219Z,14.30
2019-03-19T10:28:46.381Z,14.58
2019-03-19T10:31:12.626Z,13.90
2019-03-19T10:33:38.807Z,15.32
2019-03-19T10:36:05.067Z,15.30
2019-03-19T10:38:31.267Z,13.18
2019-03-19T10:40:58.529Z,13.65
2019-03-19T10:43:26.708Z,12.82
2019-03-19T10:45:53.000Z,12.23
2019-03-19T10:48:19.168Z,13.60
2019-03-19T10:50:45.360Z,11.97
2019-03-19T10:53:11.567Z,11.80
2019-03-19T10:55:37.723Z,10.30
2019-03-19T10:58:10.934Z,10.25
2019-03-19T11:00:32.089Z,11.38
2019-03-19T11:02:58.420Z,13.05
2019-03-19T11:05:24.689Z,12.50
2019-03-19T11:07:51.080Z,12.82
2019-03-19T11:10:17.773Z,13.70
2019-03-19T11:12:43.964Z,11.10
2019-03-19T11:15:18.578Z,15.58
2019-03-19T11:17:44.846Z,11.60
2019-03-19T11:20:15.394Z,11.80
2019-03-19T11:22:41.566Z,12.50
2019-03-19T11:25:10.662Z,10.60
2019-03-19T11:27:37.027Z,11.95
2019-03-19T11:30:09.805Z,11.50
2019-03-19T11:32:35.968Z,11.85
2019-03-19T11:35:07.416Z,8.88
2019-03-19T11:37:33.636Z,7.78
2019-03-19T11:39:59.830Z,6.90
2019-03-19T11:42:25.993Z,7.58
2019-03-19T11:44:52.253Z,9.30
2019-03-19T11:47:18.413Z,7.60
2019-03-19T11:49:44.613Z,11.68
2019-03-19T11:52:10.992Z,9.33
2019-03-19T11:54:37.501Z,7.40
2019-03-19T11:57:03.696Z,5.90
2019-03-19T11:59:29.873Z,5.58
2019-03-19T12:01:56.048Z,5.97
2019-03-19T12:04:23.364Z,6.33
2019-03-19T12:06:49.612Z,6.87
2019-03-19T12:09:15.776Z,9.53
2019-03-19T12:11:42.017Z,5.97
2019-03-19T12:14:08.185Z,7.65
2019-03-19T12:16:34.340Z,7.53
2019-03-19T12:19:01.356Z,5.67
2019-03-19T12:21:27.521Z,8.88
2019-03-19T12:23:53.690Z,7.05
2019-03-19T12:26:19.873Z,9.25
2019-03-19T12:28:46.083Z,8.50
2019-03-19T12:31:12.308Z,6.95
2019-03-19T12:33:41.166Z,6.60
2019-03-19T12:36:06.611Z,11.80
2019-03-19T12:38:32.780Z,7.33
2019-03-19T12:40:58.987Z,10.85
2019-03-19T12:43:25.313Z,7.85
2019-03-19T12:45:51.524Z,9.63
2019-03-19T12:48:17.686Z,7.70
2019-03-19T12:50:43.892Z,7.33
2019-03-19T12:53:10.063Z,6.05
2019-03-19T12:55:36.293Z,11.10
2019-03-19T12:58:03.280Z,7.47
2019-03-19T13:00:34.678Z,7.50
2019-03-19T13:02:58.838Z,4.33
2019-03-19T13:05:25.006Z,7.37
2019-03-19T13:07:51.163Z,8.03
2019-03-19T13:10:19.774Z,4.45
2019-03-19T13:12:46.083Z,6.05
2019-03-19T13:15:14.785Z,5.45
2019-03-19T13:17:40.974Z,4.08
2019-03-19T13:20:09.670Z,6.62
2019-03-19T13:22:35.861Z,5.67
2019-03-19T13:25:07.094Z,8.88
2019-03-19T13:27:33.311Z,10.13
2019-03-19T13:29:59.486Z,8.30
2019-03-19T13:32:28.153Z,7.58
2019-03-19T13:34:55.163Z,3.55
2019-03-19T13:37:21.329Z,6.80
2019-03-19T13:39:47.604Z,5.95
2019-03-19T13:42:13.823Z,5.72
2019-03-19T13:44:40.001Z,4.17
2019-03-19T13:47:06.421Z,5.92
2019-03-19T13:49:32.580Z,6.08
2019-03-19T13:51:58.944Z,4.85
2019-03-19T13:54:25.233Z,5.08
2019-03-19T13:56:51.604Z,4.30
2019-03-19T13:59:17.798Z,9.10
2019-03-19T14:01:43.967Z,7.75
2019-03-19T14:04:10.188Z,6.75
2019-03-19T14:06:36.426Z,6.90
2019-03-19T14:09:05.736Z,7.42
2019-03-19T14:11:32.067Z,6.55
2019-03-19T14:13:59.357Z,3.83
2019-03-19T14:16:25.524Z,3.42
2019-03-19T14:18:51.724Z,4.17
2019-03-19T14:21:17.888Z,10.95
2019-03-19T14:23:46.042Z,9.45
2019-03-19T14:26:12.250Z,9.38
2019-03-19T14:28:38.420Z,7.62
2019-03-19T14:31:08.914Z,9.13
2019-03-19T14:33:32.940Z,8.80
2019-03-19T14:35:59.136Z,6.75
2019-03-19T14:38:26.461Z,9.48
2019-03-19T14:40:52.787Z,5.92
2019-03-19T14:43:19.112Z,5.75
2019-03-19T14:45:45.617Z,6.47
2019-03-19T14:48:11.828Z,7.85
2019-03-19T14:50:38.008Z,6.70
2019-03-19T14:53:04.244Z,8.73
2019-03-19T14:55:30.788Z,5.58
2019-03-19T14:57:56.989Z,6.10
2019-03-19T15:00:23.162Z,6.90
2019-03-19T15:02:49.593Z,5.65
2019-03-19T15:05:16.624Z,5.65
2019-03-19T15:07:43.119Z,5.58
2019-03-19T15:10:21.099Z,4.20
2019-03-19T15:12:47.517Z,7.00
2019-03-19T15:15:14.884Z,4.95
2019-03-19T15:17:41.296Z,5.08
2019-03-19T15:20:12.846Z,6.40
2019-03-19T15:22:39.462Z,7.17
2019-03-19T15:25:07.532Z,4.97
2019-03-19T15:27:33.880Z,5.75
2019-03-19T15:30:00.045Z,5.72
2019-03-19T15:32:26.225Z,5.97
2019-03-19T15:34:52.424Z,8.23
2019-03-19T15:37:18.604Z,7.92
2019-03-19T15:39:44.829Z,7.47
2019-03-19T15:42:11.135Z,5.92
2019-03-19T15:44:37.427Z,6.78
2019-03-19T15:47:05.197Z,7.35
2019-03-19T15:49:38.208Z,6.65
2019-03-19T15:51:59.532Z,7.50
2019-03-19T15:54:26.755Z,8.03
2019-03-19T15:56:53.144Z,8.65
2019-03-19T15:59:19.302Z,8.73
2019-03-19T16:01:45.514Z,9.08
2019-03-19T16:04:11.677Z,4.72
2019-03-19T16:06:39.495Z,11.43
2019-03-19T16:09:06.898Z,6.28
2019-03-19T16:11:33.249Z,10.55
2019-03-19T16:13:59.426Z,10.08
2019-03-19T16:16:25.613Z,8.93
2019-03-19T16:18:53.016Z,7.70
2019-03-19T16:21:19.236Z,10.55
2019-03-19T16:23:45.833Z,11.43
2019-03-19T16:26:12.019Z,10.72
2019-03-19T16:28:39.537Z,8.68
2019-03-19T16:31:05.879Z,9.73
2019-03-19T16:33:32.053Z,8.78
2019-03-19T16:35:58.228Z,8.45
2019-03-19T16:38:24.409Z,6.08
2019-03-19T16:40:50.633Z,7.25
2019-03-19T16:43:16.935Z,11.45
2019-03-19T16:46:09.301Z,10.80
2019-03-19T16:48:35.771Z,6.97
2019-03-19T16:51:01.956Z,7.35
2019-03-19T16:53:28.518Z,8.33
2019-03-19T16:55:54.927Z,5.58
2019-03-19T16:58:21.864Z,8.65
2019-03-19T17:00:48.081Z,7.28
2019-03-19T17:03:14.240Z,8.38
2019-03-19T17:05:40.409Z,12.13
2019-03-19T17:08:06.840Z,8.93
2019-03-19T17:10:33.300Z,9.38
2019-03-19T17:12:59.495Z,9.53
2019-03-19T17:15:25.713Z,7.95
2019-03-19T17:17:52.338Z,9.55
2019-03-19T17:20:19.284Z,6.22
2019-03-19T17:22:46.991Z,6.22
2019-03-19T17:25:23.285Z,7.72
2019-03-19T17:27:49.607Z,7.17
2019-03-19T17:30:22.920Z,10.78
2019-03-19T17:32:49.384Z,9.78
2019-03-19T17:35:16.008Z,9.50
2019-03-19T17:37:42.180Z,7.58
2019-03-19T17:40:12.536Z,6.53
2019-03-19T17:42:38.727Z,7.62
2019-03-19T17:45:07.261Z,11.20
2019-03-19T17:47:33.759Z,8.65
2019-03-19T17:49:59.977Z,6.97
2019-03-19T17:52:26.278Z,9.13
2019-03-19T17:54:52.619Z,8.70
2019-03-19T17:57:18.817Z,9.55
2019-03-19T17:59:44.989Z,8.85
2019-03-19T18:02:23.353Z,9.33
2019-03-19T18:04:40.624Z,7.33
2019-03-19T18:07:06.835Z,9.55
2019-03-19T18:09:33.414Z,11.73
2019-03-19T18:11:59.585Z,13.72
2019-03-19T18:14:25.857Z,10.90
2019-03-19T18:16:52.624Z,11.75
2019-03-19T18:19:18.836Z,10.78
2019-03-19T18:21:45.045Z,11.33
2019-03-19T18:24:13.981Z,8.43
2019-03-19T18:26:40.159Z,20.50
2019-03-19T18:29:06.560Z,10.78
2019-03-19T18:31:32.791Z,9.98
2019-03-19T18:34:09.646Z,8.95
2019-03-19T18:36:27.009Z,9.23
2019-03-19T18:38:53.288Z,12.47
2019-03-19T18:41:19.471Z,10.75
2019-03-19T18:43:45.737Z,10.38
2019-03-19T18:46:13.063Z,12.70
2019-03-19T18:48:39.231Z,10.82
2019-03-19T18:51:05.420Z,12.55
2019-03-19T18:53:31.722Z,11.57
2019-03-19T18:55:57.913Z,10.18
2019-03-19T18:58:24.437Z,11.75
2019-03-19T19:00:50.608Z,11.57
2019-03-19T19:03:16.776Z,10.38
2019-03-19T19:05:42.934Z,12.23
2019-03-19T19:08:09.115Z,14.18
2019-03-19T19:10:35.261Z,16.50
2019-03-19T19:13:01.480Z,11.55
2019-03-19T19:15:27.643Z,17.45
2019-03-19T19:17:53.788Z,15.13
2019-03-19T19:20:19.960Z,11.33
2019-03-19T19:22:46.556Z,16.62
2019-03-19T19:25:14.205Z,16.32
2019-03-19T19:27:40.463Z,11.05
2019-03-19T19:30:13.195Z,13.68
2019-03-19T19:32:39.377Z,15.60
2019-03-19T19:35:05.657Z,15.65
2019-03-19T19:37:31.800Z,12.20
2019-03-19T19:39:58.004Z,15.93
2019-03-19T19:42:24.189Z,10.78
2019-03-19T19:44:50.347Z,14.10
2019-03-19T19:47:18.233Z,11.80
2019-03-19T19:49:44.407Z,9.53
2019-03-19T19:52:10.639Z,10.00
2019-03-19T19:54:38.132Z,10.65
2019-03-19T19:57:04.292Z,11.75
2019-03-19T19:59:30.452Z,9.53
2019-03-19T20:01:56.633Z,7.35
2019-03-19T20:04:22.812Z,10.80
2019-03-19T20:06:49.036Z,14.33
2019-03-19T20:09:15.191Z,11.75
2019-03-19T20:11:41.401Z,11.40
2019-03-19T20:14:07.551Z,12.47
2019-03-19T20:16:33.753Z,11.33
2019-03-19T20:18:59.900Z,14.15
2019-03-19T20:21:26.104Z,12.90
2019-03-19T20:23:52.277Z,10.70
2019-03-19T20:26:18.431Z,12.85
2019-03-19T20:28:44.591Z,10.95
2019-03-19T20:31:10.744Z,12.37
2019-03-19T20:33:37.021Z,9.75
2019-03-19T20:36:03.427Z,13.68
2019-03-19T20:38:29.577Z,8.25
2019-03-19T20:40:55.838Z,12.63
2019-03-19T20:43:22.024Z,9.78
2019-03-19T20:45:48.186Z,8.18
2019-03-19T20:48:14.368Z,13.00
2019-03-19T20:50:40.601Z,12.18
2019-03-19T20:53:06.848Z,12.25
2019-03-19T20:55:34.037Z,13.93
2019-03-19T20:58:00.202Z,11.78
2019-03-19T21:00:26.849Z,16.15
2019-03-19T21:02:53.045Z,10.63
2019-03-19T21:05:19.200Z,10.00
2019-03-19T21:07:45.360Z,8.58
2019-03-19T21:10:15.366Z,11.95
2019-03-19T21:12:41.643Z,12.07
2019-03-19T21:15:16.304Z,11.85
2019-03-19T21:17:42.499Z,12.70
2019-03-19T21:20:08.760Z,13.80
2019-03-19T21:22:34.913Z,15.05
2019-03-19T21:25:01.115Z,13.32
2019-03-19T21:27:27.292Z,12.20
2019-03-19T21:29:53.555Z,15.83
2019-03-19T21:32:19.768Z,9.28
2019-03-19T21:34:46.004Z,24.23
2019-03-19T21:37:12.183Z,11.88
2019-03-19T21:39:38.335Z,10.38
2019-03-19T21:42:04.496Z,12.00
2019-03-19T21:44:30.709Z,9.58
2019-03-19T21:46:56.876Z,11.00
2019-03-19T21:49:23.179Z,14.53
2019-03-19T21:51:49.359Z,13.32
2019-03-19T21:54:15.550Z,8.85
2019-03-19T21:56:41.816Z,12.30
2019-03-19T21:59:08.027Z,13.55
2019-03-19T22:01:34.195Z,12.63
2019-03-19T22:04:03.277Z,14.87
2019-03-19T22:06:28.520Z,15.70
2019-03-19T22:08:54.707Z,13.25
2019-03-19T22:11:20.864Z,14.13
2019-03-19T22:13:47.023Z,11.03
2019-03-19T22:16:13.314Z,14.23
2019-03-19T22:18:39.473Z,12.80
2019-03-19T22:21:05.653Z,15.45
2019-03-19T22:23:31.797Z,17.00
2019-03-19T22:25:58.097Z,14.03
2019-03-19T22:28:24.259Z,11.33
2019-03-19T22:30:50.420Z,13.28
2019-03-19T22:33:16.609Z,11.90
2019-03-19T22:35:42.855Z,12.15
2019-03-19T22:38:09.021Z,11.88
2019-03-19T22:40:35.201Z,13.95
2019-03-19T22:43:02.442Z,20.15
2019-03-19T22:45:28.591Z,14.05
2019-03-19T22:47:54.762Z,11.85
2019-03-19T22:50:20.923Z,12.75
2019-03-19T22:52:47.113Z,15.03
2019-03-19T22:55:13.968Z,11.33
2019-03-19T22:57:40.629Z,13.30
2019-03-19T23:00:12.937Z,11.35
2019-03-19T23:02:41.022Z,14.98
2019-03-19T23:05:07.312Z,14.38
2019-03-19T23:07:33.616Z,17.85
2019-03-19T23:09:59.768Z,10.78
2019-03-19T23:12:25.951Z,12.65
2019-03-19T23:14:52.105Z,14.70
2019-03-19T23:17:18.260Z,12.88
2019-03-19T23:19:44.632Z,12.43
2019-03-19T23:22:10.792Z,16.67
2019-03-19T23:24:36.980Z,16.60
2019-03-19T23:27:03.143Z,18.15
2019-03-19T23:29:29.637Z,11.00
2019-03-19T23:31:55.887Z,12.80
2019-03-19T23:34:22.076Z,14.23
2019-03-19T23:36:48.235Z,13.62
2019-03-19T23:39:14.392Z,15.03
2019-03-19T23:41:40.572Z,13.20
2019-03-19T23:44:06.740Z,13.43
2019-03-19T23:46:32.983Z,13.05
2019-03-19T23:48:59.149Z,12.98
2019-03-19T23:51:25.332Z,11.80
2019-03-19T23:53:51.806Z,10.32
2019-03-19T23:56:17.980Z,14.68
2019-03-19T23:58:44.157Z,12.15
